Time,TemperatureF,DewpointF,PressureIn,WindDirection,WindDirectionDegrees,WindSpeedMPH,WindSpeedGustMPH,Humidity,HourlyPrecipIn,Conditions,Clouds,dailyrainin,SoftwareType,DateUTC
2013-10-04 03:00:00,70.0,61.0,29.80,NW,320,22.0,-999.0,73,-99.99,,,-99.99,,2013-10-04 07:00:00,
2013-10-04 03:43:00,70.0,61.0,29.80,NW,320,22.0,-999.0,73,-99.99,,,-99.99,,2013-10-04 07:43:00,
2013-10-04 03:53:00,70.0,61.0,29.80,NW,320,22.0,-999.0,73,-99.99,,,-99.99,,2013-10-04 07:53:00,
2013-10-04 05:00:00,68.0,59.0,29.80,WNW,290,15.0,-999.0,72,-99.99,,,-99.99,,2013-10-04 09:00:00,
2013-10-04 05:23:00,68.0,59.0,29.80,WNW,290,15.0,-999.0,72,-99.99,,,-99.99,,2013-10-04 09:23:00,
2013-10-04 05:35:00,68.0,59.0,29.80,WNW,290,15.0,-999.0,72,-99.99,,,-99.99,,2013-10-04 09:35:00,
2013-10-04 05:45:00,68.0,59.0,29.80,WNW,290,15.0,-999.0,72,-99.99,,,-99.99,,2013-10-04 09:45:00,
2013-10-04 05:56:00,68.0,59.0,29.80,WNW,290,15.0,-999.0,72,-99.99,,,-99.99,,2013-10-04 09:56:00,
2013-10-04 06:00:00,69.0,63.0,29.80,NW,320,20.0,-999.0,80,-99.99,,,-99.99,,2013-10-04 10:00:00,
2013-10-04 06:55:00,69.0,63.0,29.80,NW,320,20.0,-999.0,80,-99.99,,,-99.99,,2013-10-04 10:55:00,
2013-10-04 08:00:00,73.0,63.0,29.81,NW,320,20.0,-999.0,68,-99.99,,,-99.99,,2013-10-04 12:00:00,
2013-10-04 08:45:00,73.0,63.0,29.81,NW,320,20.0,-999.0,68,-99.99,,,-99.99,,2013-10-04 12:45:00,
2013-10-04 08:55:00,73.0,63.0,29.81,NW,320,20.0,-999.0,68,-99.99,,,-99.99,,2013-10-04 12:55:00,
2013-10-04 09:00:00,77.0,64.0,29.83,NW,320,22.0,-999.0,65,-99.99,,,-99.99,,2013-10-04 13:00:00,
2013-10-04 09:24:00,77.0,64.0,29.83,NW,320,22.0,-999.0,65,-99.99,,,-99.99,,2013-10-04 13:24:00,
2013-10-04 09:34:00,77.0,64.0,29.83,NW,320,22.0,-999.0,65,-99.99,,,-99.99,,2013-10-04 13:34:00,
2013-10-04 09:44:00,77.0,64.0,29.83,NW,320,22.0,-999.0,65,-99.99,,,-99.99,,2013-10-04 13:44:00,
2013-10-04 09:55:00,77.0,64.0,29.83,NW,320,22.0,-999.0,65,-99.99,,,-99.99,,2013-10-04 13:55:00,
2013-10-04 11:00:00,81.0,63.0,29.81,WNW,300,15.0,-999.0,54,-99.99,,,-99.99,,2013-10-04 15:00:00,
2013-10-04 11:56:00,81.0,63.0,29.81,WNW,300,15.0,-999.0,54,-99.99,,,-99.99,,2013-10-04 15:56:00,
2013-10-04 15:00:00,77.0,61.0,29.75,West,270,22.0,-999.0,57,-99.99,,,-99.99,,2013-10-04 19:00:00,
2013-10-04 15:43:00,77.0,61.0,29.75,West,270,22.0,-999.0,57,-99.99,,,-99.99,,2013-10-04 19:43:00,
2013-10-04 15:52:00,77.0,61.0,29.75,West,270,22.0,-999.0,57,-99.99,,,-99.99,,2013-10-04 19:52:00,
2013-10-04 20:00:00,68.0,63.0,29.70,WSW,240,22.0,-999.0,82,-99.99,,,-99.99,,2013-10-05 00:00:00,
2013-10-04 20:42:00,68.0,63.0,29.70,WSW,240,22.0,-999.0,82,-99.99,,,-99.99,,2013-10-05 00:42:00,
2013-10-04 20:52:00,68.0,63.0,29.70,WSW,240,22.0,-999.0,82,-99.99,,,-99.99,,2013-10-05 00:52:00,
2013-10-04 23:00:00,72.0,63.0,29.99,SSW,200,22.0,-999.0,73,-99.99,,,-99.99,,2013-10-05 03:00:00,
2013-10-04 23:55:00,72.0,63.0,29.99,SSW,200,22.0,-999.0,73,-99.99,,,-99.99,,2013-10-05 03:55:00,